Urb Santa Clara, Puerto Rico
Current Conditions -  °F | °C
As of 10:50 PM on Sunday 21 Dec 2014 (Local Time) from TJPS Reporting Station
Clear Clear  
Wind Chill: 68°   Ceiling: Unl
Heat Index: 68°   Visibility: 8mi
Dew Point: 64°   Wind: 0mph
Humidity: 88%   Direction: NA
Pressure: 30.02"   Gusts: NA
Location:  18.0093°N, 66.6209°W
Report Text: TJPS 220250Z 00000KT 8SM SKC 20/18 A3002
Loading
Personal Weather Stations






























Interactive Weather Map New forecast layout! Learn more

10-Day Weather Forecast

Advertisements
Track Severe Weather on mobile